This is the latest recevied weather packets stored in our database for station/object IQ5QD-13. If no packets are shown the sender has not sent any weather packets the latest 10 day(s).
| Time | Temp. | Humidity | Pressure | Rain* | Wind** | Luminosity | Snow |
|---|---|---|---|---|---|---|---|
| 1777698340 | 9.44° C | 66% | 1021.5 hPa | 0 mm | - | 43 W/m² | - |
| 1777697133 | 7.22° C | 73% | 1021.4 hPa | 0 mm | - | 21 W/m² | - |
| 1777696560 | 7.78° C | 72% | 1021.5 hPa | 0 mm | - | 15 W/m² | - |
| 1777695936 | 7.22° C | 74% | 1021.4 hPa | 0 mm | - | 9 W/m² | - |
| 1777688738 | 5° C | 80% | 1021.4 hPa | 0 mm | - | 0 W/m² | - |
| 1777682160 | 6.11° C | 74% | 1021.6 hPa | 0 mm | - | 0 W/m² | - |
| 1777677937 | 6.67° C | 69% | 1021.6 hPa | 0 mm | - | 0 W/m² | - |
| 1777677376 | 7.22° C | 67% | 1021.5 hPa | 0 mm | - | 0 W/m² | - |
| 1777674054 | 8.89° C | 63% | 1021.2 hPa | 0 mm | - | 0 W/m² | - |
| 1777672297 | 11.11° C | 51% | 1021 hPa | 0 mm | - | 0 W/m² | - |
| 1777671092 | 11.67° C | 47% | 1021.2 hPa | 0 mm | - | 0 W/m² | - |
| 1777658437 | 18.33° C | 33% | 1019.3 hPa | 0 mm | - | 13 W/m² | - |
| 1777657872 | 18.33° C | 33% | 1019 hPa | 0 mm | - | 18 W/m² | - |
| 1777656672 | 19.44° C | 34% | 1019.1 hPa | 0 mm | - | 27 W/m² | - |
| 1777654816 | 20° C | 33% | 1018.8 hPa | 0 mm | - | 80 W/m² | - |
| 1777648832 | 21.11° C | 31% | 1018.7 hPa | 0 mm | - | 340 W/m² | - |
| 1777642291 | 21.11° C | 31% | 1019.3 hPa | 0 mm | - | 597 W/m² | - |
| 1777641633 | 21.67° C | 31% | 1019.4 hPa | 0 mm | - | 612 W/m² | - |
| 1777636865 | 21.67° C | 30% | 1019.8 hPa | 0 mm | - | 697 W/m² | - |
| 1777633839 | 20.56° C | 33% | 1020.1 hPa | 0 mm | - | 701 W/m² | - |
| 1777625778 | 17.78° C | 40% | 1021 hPa | 0 mm | - | 529 W/m² | - |
| 1777623958 | 17.78° C | 40% | 1020.9 hPa | 0 mm | - | 462 W/m² | - |
| 1777622722 | 17.22° C | 40% | 1021.1 hPa | 0 mm | - | 415 W/m² | - |
| 1777617972 | 15.56° C | 47% | 1020.9 hPa | 0 mm | - | 224 W/m² | - |
| 1777616754 | 15° C | 48% | 1020.8 hPa | 0 mm | - | 183 W/m² | - |
* Rain latest hour (hover to see other rain measurements)
** Current wind speed in m/s (hover to see current wind gust speed)